createdAt,value
2022-12-18T00:02:34.008Z,-7.62
2022-12-18T00:07:33.778Z,-7.64
2022-12-18T00:12:33.747Z,-7.60
2022-12-18T00:17:33.712Z,-7.67
2022-12-18T00:22:33.668Z,-7.60
2022-12-18T00:27:33.646Z,-7.52
2022-12-18T00:32:33.607Z,-7.62
2022-12-18T00:37:33.568Z,-7.71
2022-12-18T00:42:33.533Z,-7.66
2022-12-18T00:47:33.510Z,-7.55
2022-12-18T00:52:33.481Z,-7.49
2022-12-18T00:57:33.457Z,-7.31
2022-12-18T01:02:33.546Z,-7.24
2022-12-18T01:07:33.379Z,-7.28
2022-12-18T01:12:33.371Z,-7.34
2022-12-18T01:17:33.331Z,-7.42
2022-12-18T01:22:33.288Z,-7.38
2022-12-18T01:27:33.257Z,-7.38
2022-12-18T01:32:33.225Z,-7.37
2022-12-18T01:37:33.173Z,-7.45
2022-12-18T01:42:33.125Z,-7.37
2022-12-18T01:47:33.084Z,-7.34
2022-12-18T01:52:33.054Z,-7.32
2022-12-18T01:57:33.027Z,-7.38
2022-12-18T02:02:33.101Z,-7.45
2022-12-18T02:07:32.979Z,-7.41
2022-12-18T02:12:32.947Z,-7.46
2022-12-18T02:17:32.934Z,-7.46
2022-12-18T02:22:32.905Z,-7.53
2022-12-18T02:27:32.863Z,-7.45
2022-12-18T02:32:32.865Z,-7.38
2022-12-18T02:37:32.828Z,-7.38
2022-12-18T02:42:32.809Z,-7.41
2022-12-18T02:47:32.784Z,-7.47
2022-12-18T02:52:32.751Z,-7.59
2022-12-18T02:57:32.721Z,-7.68
2022-12-18T03:02:32.907Z,-7.55
2022-12-18T03:07:32.664Z,-7.56
2022-12-18T03:12:32.654Z,-7.50
2022-12-18T03:17:32.603Z,-7.42
2022-12-18T03:22:32.573Z,-7.50
2022-12-18T03:27:32.533Z,-7.45
2022-12-18T03:32:32.498Z,-7.34
2022-12-18T03:37:32.467Z,-7.24
2022-12-18T03:42:32.432Z,-7.10
2022-12-18T03:47:32.416Z,-6.96
2022-12-18T03:52:32.378Z,-6.84
2022-12-18T03:57:32.349Z,-6.75
2022-12-18T04:02:32.502Z,-6.59
2022-12-18T04:07:32.281Z,-6.47
2022-12-18T04:12:32.240Z,-6.34
2022-12-18T04:17:32.210Z,-6.27
2022-12-18T04:22:32.186Z,-6.23
2022-12-18T04:27:32.156Z,-6.20
2022-12-18T04:32:32.125Z,-6.10
2022-12-18T04:37:32.101Z,-6.05
2022-12-18T04:42:32.067Z,-6.02
2022-12-18T04:47:32.037Z,-5.87
2022-12-18T04:52:32.005Z,-5.85
2022-12-18T04:57:31.980Z,-5.80
2022-12-18T05:02:32.041Z,-5.71
2022-12-18T05:07:31.927Z,-5.62
2022-12-18T05:12:31.915Z,-5.71
2022-12-18T05:17:31.876Z,-5.71
2022-12-18T05:22:31.843Z,-5.77
2022-12-18T05:27:31.824Z,-5.75
2022-12-18T05:32:31.806Z,-5.71
2022-12-18T05:37:31.782Z,-5.82
2022-12-18T05:42:31.775Z,-5.88
2022-12-18T05:47:31.738Z,-5.92
2022-12-18T05:52:31.719Z,-5.92
2022-12-18T05:57:31.696Z,-6.02
2022-12-18T06:02:31.764Z,-5.98
2022-12-18T06:07:31.655Z,-5.92
2022-12-18T06:12:31.641Z,-5.91
2022-12-18T06:17:31.637Z,-5.90
2022-12-18T06:22:31.649Z,-5.92
2022-12-18T06:27:32.442Z,-6.05
2022-12-18T06:32:31.563Z,-6.26
2022-12-18T06:37:34.540Z,-6.32
2022-12-18T06:42:31.552Z,-6.44
2022-12-18T06:47:31.534Z,-6.55
2022-12-18T06:52:31.520Z,-6.61
2022-12-18T06:57:31.608Z,-6.59
2022-12-18T07:02:33.550Z,-6.59
2022-12-18T07:07:31.479Z,-6.44
2022-12-18T07:12:31.458Z,-6.42
2022-12-18T07:17:31.400Z,-6.29
2022-12-18T07:22:31.388Z,-6.37
2022-12-18T07:27:31.379Z,-6.38
2022-12-18T07:32:31.364Z,-6.29
2022-12-18T07:37:31.310Z,-6.21
2022-12-18T07:42:31.309Z,-6.19
2022-12-18T07:47:31.261Z,-6.09
2022-12-18T07:52:31.260Z,-5.96
2022-12-18T07:57:50.071Z,-6.09
2022-12-18T08:02:31.299Z,-6.06
2022-12-18T08:07:31.162Z,-6.03
2022-12-18T08:12:31.161Z,-6.02
2022-12-18T08:17:31.144Z,-5.91
2022-12-18T08:22:31.143Z,-5.77
2022-12-18T08:27:31.116Z,-5.87
2022-12-18T08:32:31.079Z,-5.81
2022-12-18T08:37:31.047Z,-5.82
2022-12-18T08:42:32.893Z,-5.90
2022-12-18T08:47:30.979Z,-5.75
2022-12-18T08:52:30.978Z,-5.91
2022-12-18T08:57:30.966Z,-5.99
2022-12-18T09:02:31.115Z,-5.91
2022-12-18T09:07:30.956Z,-5.77
2022-12-18T09:12:30.885Z,-5.80
2022-12-18T09:17:30.867Z,-5.84
2022-12-18T09:22:30.785Z,-5.92
2022-12-18T09:27:30.752Z,-5.91
2022-12-18T09:32:30.693Z,-5.98
2022-12-18T09:37:30.653Z,-6.03
2022-12-18T09:42:30.617Z,-6.09
2022-12-18T09:47:30.565Z,-6.02
2022-12-18T09:52:30.527Z,-6.17
2022-12-18T09:57:30.501Z,-6.09
2022-12-18T10:02:30.541Z,-6.10
2022-12-18T10:07:30.438Z,-5.99
2022-12-18T10:12:30.427Z,-5.90
2022-12-18T10:17:30.378Z,-5.91
2022-12-18T10:22:30.334Z,-5.91
2022-12-18T10:27:30.334Z,-5.70
2022-12-18T10:32:30.312Z,-5.70
2022-12-18T10:37:30.317Z,-5.95
2022-12-18T10:42:30.255Z,-5.80
2022-12-18T10:47:30.270Z,-5.71
2022-12-18T10:52:30.204Z,-5.64
2022-12-18T10:57:30.199Z,-5.34
2022-12-18T11:02:30.361Z,-5.27
2022-12-18T11:07:30.175Z,-5.01
2022-12-18T11:12:30.138Z,-4.93
2022-12-18T11:17:30.134Z,-4.85
2022-12-18T11:22:30.161Z,-4.63
2022-12-18T11:27:30.131Z,-4.62
2022-12-18T11:32:30.111Z,-4.55
2022-12-18T11:37:30.071Z,-4.40
2022-12-18T11:42:30.027Z,-4.30
2022-12-18T11:47:29.986Z,-4.31
2022-12-18T11:52:29.935Z,-4.06
2022-12-18T11:57:29.953Z,-3.95
2022-12-18T12:02:30.067Z,-4.13
2022-12-18T12:07:29.923Z,-4.28
2022-12-18T12:12:29.899Z,-4.34
2022-12-18T12:17:29.875Z,-4.46
2022-12-18T12:22:29.826Z,-4.38
2022-12-18T12:27:29.804Z,-4.44
2022-12-18T12:32:31.373Z,-4.31
2022-12-18T12:37:29.738Z,-4.20
2022-12-18T12:42:29.716Z,-4.17
2022-12-18T12:47:29.698Z,-4.26
2022-12-18T12:52:29.648Z,-4.34
2022-12-18T12:57:29.622Z,-4.36
2022-12-18T13:02:29.658Z,-4.23
2022-12-18T13:07:29.607Z,-4.09
2022-12-18T13:12:29.509Z,-4.16
2022-12-18T13:17:29.491Z,-4.22
2022-12-18T13:22:29.441Z,-4.41
2022-12-18T13:27:29.430Z,-4.49
2022-12-18T13:32:29.374Z,-4.49
2022-12-18T13:37:29.404Z,-4.36
2022-12-18T13:42:29.351Z,-4.36
2022-12-18T13:47:29.319Z,-4.28
2022-12-18T13:52:29.272Z,-4.30
2022-12-18T13:57:29.283Z,-4.33
2022-12-18T14:02:29.396Z,-4.31
2022-12-18T14:07:30.847Z,-4.26
2022-12-18T14:12:29.175Z,-4.31
2022-12-18T14:17:29.135Z,-4.33
2022-12-18T14:22:29.082Z,-4.30
2022-12-18T14:27:29.052Z,-4.37
2022-12-18T14:32:29.002Z,-4.41
2022-12-18T14:37:30.608Z,-4.49
2022-12-18T14:42:29.250Z,-4.58
2022-12-18T14:47:28.949Z,-4.58
2022-12-18T14:52:28.926Z,-4.65
2022-12-18T14:57:28.909Z,-4.63
2022-12-18T15:02:29.254Z,-4.67
2022-12-18T15:07:28.830Z,-4.66
2022-12-18T15:12:28.821Z,-4.67
2022-12-18T15:17:28.786Z,-4.70
2022-12-18T15:22:28.749Z,-4.70
2022-12-18T15:27:28.786Z,-4.76
2022-12-18T15:32:28.738Z,-4.81
2022-12-18T15:37:28.647Z,-4.83
2022-12-18T15:42:28.613Z,-4.81
2022-12-18T15:47:28.589Z,-4.81
2022-12-18T15:52:28.553Z,-4.81
2022-12-18T15:57:28.531Z,-4.83
2022-12-18T16:02:28.719Z,-4.88
2022-12-18T16:07:30.799Z,-4.93
2022-12-18T16:12:28.408Z,-5.03
2022-12-18T16:17:28.391Z,-5.08
2022-12-18T16:22:28.361Z,-5.20
2022-12-18T16:27:28.363Z,-5.27
2022-12-18T16:32:28.340Z,-5.31
2022-12-18T16:37:28.324Z,-5.31
2022-12-18T16:42:28.279Z,-5.35
2022-12-18T16:47:28.246Z,-5.35
2022-12-18T16:52:28.211Z,-5.39
2022-12-18T16:57:28.175Z,-5.53
2022-12-18T17:02:28.471Z,-5.59
2022-12-18T17:07:28.141Z,-5.60
2022-12-18T17:12:28.076Z,-5.67
2022-12-18T17:17:28.083Z,-5.66
2022-12-18T17:22:28.067Z,-5.71
2022-12-18T17:27:28.043Z,-5.80
2022-12-18T17:32:28.035Z,-5.80
2022-12-18T17:37:28.002Z,-5.88
2022-12-18T17:42:27.974Z,-5.91
2022-12-18T17:47:27.967Z,-5.95
2022-12-18T17:52:27.918Z,-5.99
2022-12-18T17:57:27.889Z,-5.99
2022-12-18T18:02:27.999Z,-5.99
2022-12-18T18:07:27.848Z,-5.99
2022-12-18T18:12:27.822Z,-5.96
2022-12-18T18:17:27.784Z,-6.00
2022-12-18T18:22:27.750Z,-6.02
2022-12-18T18:27:27.730Z,-5.99
2022-12-18T18:32:27.691Z,-6.00
2022-12-18T18:37:27.709Z,-5.98
2022-12-18T18:42:27.659Z,-5.91
2022-12-18T18:47:27.623Z,-5.98
2022-12-18T18:52:27.613Z,-5.88
2022-12-18T18:57:30.520Z,-5.77
2022-12-18T19:02:27.627Z,-5.63
2022-12-18T19:07:30.142Z,-5.62
2022-12-18T19:12:27.550Z,-5.59
2022-12-18T19:17:30.686Z,-5.51
2022-12-18T19:22:27.432Z,-5.53
2022-12-18T19:27:27.408Z,-5.53
2022-12-18T19:32:27.470Z,-5.57
2022-12-18T19:37:27.365Z,-5.60
2022-12-18T19:42:34.820Z,-5.53
2022-12-18T19:47:27.354Z,-5.52
2022-12-18T19:52:27.323Z,-5.51
2022-12-18T19:57:27.313Z,-5.46
2022-12-18T20:02:28.300Z,-5.46
2022-12-18T20:07:27.280Z,-5.48
2022-12-18T20:12:27.240Z,-5.41
2022-12-18T20:17:27.219Z,-5.38
2022-12-18T20:22:27.176Z,-5.38
2022-12-18T20:27:27.155Z,-5.33
2022-12-18T20:32:29.599Z,-5.33
2022-12-18T20:37:27.341Z,-5.27
2022-12-18T20:42:27.092Z,-5.25
2022-12-18T20:47:27.095Z,-5.24
2022-12-18T20:52:27.028Z,-5.21
2022-12-18T20:57:27.044Z,-5.16
2022-12-18T21:02:27.260Z,-5.16
2022-12-18T21:07:26.963Z,-5.20
2022-12-18T21:12:26.940Z,-5.20
2022-12-18T21:17:26.904Z,-5.20
2022-12-18T21:22:26.863Z,-5.21
2022-12-18T21:27:26.836Z,-5.20
2022-12-18T21:32:26.801Z,-5.21
2022-12-18T21:37:26.792Z,-5.23
2022-12-18T21:42:26.759Z,-5.24
2022-12-18T21:47:26.747Z,-5.21
2022-12-18T21:52:32.562Z,-5.17
2022-12-18T21:57:26.707Z,-5.17
2022-12-18T22:02:26.956Z,-5.17
2022-12-18T22:07:26.646Z,-5.13
2022-12-18T22:12:26.622Z,-5.13
2022-12-18T22:17:26.599Z,-5.06
2022-12-18T22:22:26.564Z,-5.06
2022-12-18T22:27:26.539Z,-5.02
2022-12-18T22:32:30.919Z,-4.99
2022-12-18T22:37:26.502Z,-4.99
2022-12-18T22:42:26.465Z,-4.99
2022-12-18T22:47:29.748Z,-4.95
2022-12-18T22:52:26.413Z,-4.91
2022-12-18T22:57:26.383Z,-4.87
2022-12-18T23:02:26.517Z,-4.88
2022-12-18T23:07:26.330Z,-4.85
2022-12-18T23:12:26.290Z,-4.85
2022-12-18T23:17:26.265Z,-4.81
2022-12-18T23:22:26.239Z,-4.77
2022-12-18T23:27:26.210Z,-4.73
2022-12-18T23:32:26.169Z,-4.70
2022-12-18T23:37:50.303Z,-4.66
2022-12-18T23:42:26.146Z,-4.67
2022-12-18T23:47:26.124Z,-4.72
2022-12-18T23:52:26.092Z,-4.73
2022-12-18T23:57:26.061Z,-4.70
